Flight Track Log - Related Links

Times and Time Zones

All times are in EDT time to prevent confusion due to time zone crossing. See the N5312S flight status page for this flight to view local times or setup timezone preferences in your user account.

Time Position Orientation Groundspeed Altitude Reporting Facility
EDT Latitude Longitude Course Direction KTS MPH feet Rate Location/Type
Tue 01:48:17 PM 42.1522 -72.6333 194° South 115 132 4,400  Level Boston Center
Tue 01:49:18 PM 42.1189 -72.6444 194° South 112 129 4,400 50 Level Boston Center
Tue 01:50:18 PM 42.0917 -72.6556 197° South 107 123 4,500  Climbing Boston Center
Tue 01:51:19 PM 42.0647 -72.6639 193° South 102 117 4,400 -61 Descending Boston Center
Tue 01:51:56 PM 42.0458 -72.6694 192° South 105 121 4,400  Level Boston Center
Tue 01:53:21 PM 42.0064 -72.6803 192° South 107 123 4,400  Level Boston Center
Tue 01:54:21 PM 41.9792 -72.6914 197° South 112 129 4,400 58 Level Boston Center
Tue 01:55:04 PM 41.9561 -72.6969 190° South 108 124 4,500 55 Climbing Boston Center
Tue 01:56:11 PM 41.9228 -72.7108 197° South 112 129 4,500 47 Level Boston Center
Tue 01:57:11 PM 41.8936 -72.7189 192° South 107 123 4,600 365 Climbing Boston Center
Tue 01:58:06 PM 41.8728 -72.7272 197° South 95 109 5,200 621 Climbing Boston Center
Tue 01:59:07 PM 41.8456 -72.7383 197° South 91 105 5,800 590 Climbing Boston Center
Tue 02:00:08 PM 41.8206 -72.7464 194° South 93 107 6,400 295 Climbing Boston Center
Tue 02:01:09 PM 41.7894 -72.7547 191° South 111 128 6,400  Level Boston Center
Tue 02:02:09 PM 41.7558 -72.7683 197° South 123 142 6,400  Level Boston Center
Tue 02:03:16 PM 41.7183 -72.7850 198° South 123 142 6,400  Level Boston Center
Tue 02:04:11 PM 41.6869 -72.7958 194° South 125 144 6,400  Level Boston Center
Tue 02:05:12 PM 41.6517 -72.8097 196° South 124 143 6,400  Level Boston Center
Tue 02:06:13 PM 41.6203 -72.8178 191° South 123 142 6,400  Level Boston Center
Tue 02:07:14 PM 41.5869 -72.8286 194° South 124 143 6,400 31 Level Boston Center
Tue 02:09:29 PM 41.5167 -72.8500 193° South 123 142 6,500 31 Climbing New York TRACON
Tue 02:10:29 PM 41.4833 -72.8667 201° Southwest 120 138 6,500  Level New York TRACON
Tue 02:11:29 PM 41.4500 -72.8667 180° South 123 142 6,500  Level New York TRACON
Tue 02:12:29 PM 41.4167 -72.8833 201° Southwest 120 138 6,500 -50 Level New York TRACON
Tue 02:13:29 PM 41.3833 -72.8833 180° South 122 140 6,400  Descending New York TRACON
Tue 02:14:29 PM 41.3500 -72.9000 201° Southwest 122 140 6,500 50 Climbing New York TRACON
Tue 02:15:29 PM 41.3167 -72.9167 201° Southwest 120 138 6,500  Level New York TRACON
Tue 02:16:29 PM 41.2833 -72.9167 180° South 121 139 6,500  Level New York TRACON
Tue 02:17:29 PM 41.2500 -72.9333 201° Southwest 124 143 6,500 -100 Level New York TRACON
Tue 02:18:29 PM 41.2167 -72.9500 201° Southwest 127 146 6,300 -150 Descending New York TRACON
Tue 02:19:29 PM 41.1833 -72.9667 201° Southwest 129 148 6,200 -200 Descending New York TRACON
Tue 02:20:29 PM 41.1500 -72.9833 201° Southwest 125 144 5,900 -300 Descending New York TRACON
Tue 02:21:29 PM 41.1167 -73.0000 201° Southwest 124 143 5,600 -350 Descending New York TRACON
Tue 02:22:29 PM 41.0833 -73.0167 201° Southwest 122 140 5,200 -350 Descending New York TRACON
Tue 02:23:29 PM 41.0500 -73.0333 201° Southwest 117 135 4,900 -350 Descending New York TRACON
Tue 02:24:29 PM 41.0333 -73.0333 180° South 119 137 4,500 -300 Descending New York TRACON
Tue 02:25:29 PM 41.0000 -73.0500 201° Southwest 108 124 4,300 -250 Descending New York TRACON
Tue 02:26:29 PM 40.9667 -73.0500 180° South 113 130 4,000 -250 Descending New York TRACON
Tue 02:27:29 PM 40.9333 -73.0667 201° Southwest 120 138 3,800 -250 Descending New York TRACON
Tue 02:28:29 PM 40.9000 -73.0833 201° Southwest 116 133 3,500 -450 Descending New York TRACON
Tue 02:29:29 PM 40.8667 -73.1000 201° Southwest 117 135 2,900 -800 Descending New York TRACON
Tue 02:30:29 PM 40.8500 -73.1167 217° Southwest 117 135 1,900 -850 Descending New York TRACON
Tue 02:31:29 PM 40.8333 -73.1333 217° Southwest 83 96 1,200 -700 Descending New York TRACON
Tue 02:32:29 PM 40.8167 -73.1167 143° Southeast 59 68 500 -700 Descending New York TRACON
Tue 02:34:00 PM 40.7952 -73.1002 197° South  Level Estimated
Tue 02:41:00 PM 40.7952 -73.1002 197° South  Level Estimated
Tue 02:42:00 PM 40.7952 -73.1002 197° South  Level Estimated

Login

Don't have an account? Register now (free) for customized features, flight alerts, and more!